Myrtle, Missouri
Current Conditions -  °F | °C
As of 8:55 PM on Thursday 27 Nov 2014 (Local Time) from KARG Reporting Station
Overcast Overcast  
Wind Chill: 29°   Ceiling: Unl
Heat Index: 34°   Visibility: 0mi
Dew Point: 27°   Wind: 6mph
Humidity: 75%   Direction: 160°SSE
Pressure: 30.45"   Gusts: NA
Location:  36.51°N, 91.27°W
Report Text: KARG 280255Z AUTO 16005KT M1/4SM VV000 01/M03 A3045 RMK AO1 57003
Loading
Personal Weather Stations






























Interactive Weather Map New forecast layout! Learn more

10-Day Weather Forecast

Advertisements
Track Severe Weather on mobile